sensor_id;sensor_type;location;lat;lon;timestamp;P1;P2;P0
55591;PMS5003;41454;53.396;-1.510;2022-12-10T00:01:33;22;18;
55591;PMS5003;41454;53.396;-1.510;2022-12-10T00:04:01;18;17;
55591;PMS5003;41454;53.396;-1.510;2022-12-10T00:06:31;17;17;
55591;PMS5003;41454;53.396;-1.510;2022-12-10T00:08:59;20;19;
55591;PMS5003;41454;53.396;-1.510;2022-12-10T00:11:28;23;20;
55591;PMS5003;41454;53.396;-1.510;2022-12-10T00:13:56;27;25;
55591;PMS5003;41454;53.396;-1.510;2022-12-10T00:16:25;25;24;
55591;PMS5003;41454;53.396;-1.510;2022-12-10T00:18:53;27;26;
55591;PMS5003;41454;53.396;-1.510;2022-12-10T00:21:21;26;21;
55591;PMS5003;41454;53.396;-1.510;2022-12-10T00:23:50;32;28;
55591;PMS5003;41454;53.396;-1.510;2022-12-10T00:26:18;30;26;
55591;PMS5003;41454;53.396;-1.510;2022-12-10T00:28:47;25;24;
55591;PMS5003;41454;53.396;-1.510;2022-12-10T00:31:16;33;28;
55591;PMS5003;41454;53.396;-1.510;2022-12-10T00:33:45;34;31;
55591;PMS5003;41454;53.396;-1.510;2022-12-10T00:36:13;33;26;
55591;PMS5003;41454;53.396;-1.510;2022-12-10T00:38:42;32;30;
55591;PMS5003;41454;53.396;-1.510;2022-12-10T00:41:12;37;34;
55591;PMS5003;41454;53.396;-1.510;2022-12-10T00:43:41;32;28;
55591;PMS5003;41454;53.396;-1.510;2022-12-10T00:46:08;29;28;
55591;PMS5003;41454;53.396;-1.510;2022-12-10T00:48:36;29;28;
55591;PMS5003;41454;53.396;-1.510;2022-12-10T00:51:03;33;28;
55591;PMS5003;41454;53.396;-1.510;2022-12-10T00:53:33;26;24;
55591;PMS5003;41454;53.396;-1.510;2022-12-10T00:56:01;34;31;
55591;PMS5003;41454;53.396;-1.510;2022-12-10T00:58:29;26;25;
55591;PMS5003;41454;53.396;-1.510;2022-12-10T01:01:06;25;24;
55591;PMS5003;41454;53.396;-1.510;2022-12-10T01:03:34;27;26;
55591;PMS5003;41454;53.396;-1.510;2022-12-10T01:06:11;39;28;
55591;PMS5003;41454;53.396;-1.510;2022-12-10T01:08:41;30;25;
55591;PMS5003;41454;53.396;-1.510;2022-12-10T01:11:09;34;26;
55591;PMS5003;41454;53.396;-1.510;2022-12-10T01:13:37;20;18;
55591;PMS5003;41454;53.396;-1.510;2022-12-10T01:16:06;24;20;
55591;PMS5003;41454;53.396;-1.510;2022-12-10T01:18:35;27;23;
55591;PMS5003;41454;53.396;-1.510;2022-12-10T01:21:04;20;18;
55591;PMS5003;41454;53.396;-1.510;2022-12-10T01:23:32;17;14;
55591;PMS5003;41454;53.396;-1.510;2022-12-10T01:26:01;21;19;
55591;PMS5003;41454;53.396;-1.510;2022-12-10T01:28:30;20;18;
55591;PMS5003;41454;53.396;-1.510;2022-12-10T01:31:00;19;19;
55591;PMS5003;41454;53.396;-1.510;2022-12-10T01:33:28;16;16;
55591;PMS5003;41454;53.396;-1.510;2022-12-10T01:35:55;16;13;
55591;PMS5003;41454;53.396;-1.510;2022-12-10T01:38:23;17;14;
55591;PMS5003;41454;53.396;-1.510;2022-12-10T01:40:50;14;13;
55591;PMS5003;41454;53.396;-1.510;2022-12-10T01:43:18;14;12;
55591;PMS5003;41454;53.396;-1.510;2022-12-10T01:45:45;14;12;
55591;PMS5003;41454;53.396;-1.510;2022-12-10T01:48:12;18;17;
55591;PMS5003;41454;53.396;-1.510;2022-12-10T01:50:40;13;12;
55591;PMS5003;41454;53.396;-1.510;2022-12-10T01:53:06;15;12;
55591;PMS5003;41454;53.396;-1.510;2022-12-10T01:55:37;12;12;
55591;PMS5003;41454;53.396;-1.510;2022-12-10T01:58:06;14;13;
55591;PMS5003;41454;53.396;-1.510;2022-12-10T02:00:34;12;12;
55591;PMS5003;41454;53.396;-1.510;2022-12-10T02:03:10;13;12;
55591;PMS5003;41454;53.396;-1.510;2022-12-10T02:05:46;14;11;
55591;PMS5003;41454;53.396;-1.510;2022-12-10T02:08:18;17;12;
55591;PMS5003;41454;53.396;-1.510;2022-12-10T02:10:54;17;14;
55591;PMS5003;41454;53.396;-1.510;2022-12-10T02:13:30;15;12;
55591;PMS5003;41454;53.396;-1.510;2022-12-10T02:16:06;11;10;
55591;PMS5003;41454;53.396;-1.510;2022-12-10T02:18:39;13;10;
55591;PMS5003;41454;53.396;-1.510;2022-12-10T02:21:12;11;11;
55591;PMS5003;41454;53.396;-1.510;2022-12-10T02:23:44;14;13;
55591;PMS5003;41454;53.396;-1.510;2022-12-10T02:26:18;12;12;
55591;PMS5003;41454;53.396;-1.510;2022-12-10T02:28:52;12;11;
55591;PMS5003;41454;53.396;-1.510;2022-12-10T02:31:32;14;12;
55591;PMS5003;41454;53.396;-1.510;2022-12-10T02:34:01;13;12;
55591;PMS5003;41454;53.396;-1.510;2022-12-10T02:36:33;18;13;
55591;PMS5003;41454;53.396;-1.510;2022-12-10T02:39:05;12;11;
55591;PMS5003;41454;53.396;-1.510;2022-12-10T02:41:37;21;19;
55591;PMS5003;41454;53.396;-1.510;2022-12-10T02:44:07;16;16;
55591;PMS5003;41454;53.396;-1.510;2022-12-10T02:46:38;14;14;
55591;PMS5003;41454;53.396;-1.510;2022-12-10T02:49:08;15;15;
55591;PMS5003;41454;53.396;-1.510;2022-12-10T02:51:39;20;19;
55591;PMS5003;41454;53.396;-1.510;2022-12-10T02:54:33;19;18;
55591;PMS5003;41454;53.396;-1.510;2022-12-10T02:57:04;18;15;
55591;PMS5003;41454;53.396;-1.510;2022-12-10T02:59:47;21;19;
55591;PMS5003;41454;53.396;-1.510;2022-12-10T03:02:28;20;20;
55591;PMS5003;41454;53.396;-1.510;2022-12-10T03:05:00;27;24;
55591;PMS5003;41454;53.396;-1.510;2022-12-10T03:07:35;22;17;
55591;PMS5003;41454;53.396;-1.510;2022-12-10T03:10:07;16;16;
55591;PMS5003;41454;53.396;-1.510;2022-12-10T03:12:39;21;21;
55591;PMS5003;41454;53.396;-1.510;2022-12-10T03:15:11;18;17;
55591;PMS5003;41454;53.396;-1.510;2022-12-10T03:17:40;16;15;
55591;PMS5003;41454;53.396;-1.510;2022-12-10T03:20:12;20;17;
55591;PMS5003;41454;53.396;-1.510;2022-12-10T03:22:42;17;15;
55591;PMS5003;41454;53.396;-1.510;2022-12-10T03:25:12;21;16;
55591;PMS5003;41454;53.396;-1.510;2022-12-10T03:27:43;18;16;
55591;PMS5003;41454;53.396;-1.510;2022-12-10T03:30:14;20;16;
55591;PMS5003;41454;53.396;-1.510;2022-12-10T03:32:41;15;13;
55591;PMS5003;41454;53.396;-1.510;2022-12-10T03:35:11;18;18;
55591;PMS5003;41454;53.396;-1.510;2022-12-10T03:37:40;16;13;
55591;PMS5003;41454;53.396;-1.510;2022-12-10T03:40:08;20;18;
55591;PMS5003;41454;53.396;-1.510;2022-12-10T03:42:37;20;15;
55591;PMS5003;41454;53.396;-1.510;2022-12-10T03:45:05;15;14;
55591;PMS5003;41454;53.396;-1.510;2022-12-10T03:47:33;15;12;
55591;PMS5003;41454;53.396;-1.510;2022-12-10T03:50:00;15;14;
55591;PMS5003;41454;53.396;-1.510;2022-12-10T03:52:28;20;14;
55591;PMS5003;41454;53.396;-1.510;2022-12-10T03:54:56;18;14;
55591;PMS5003;41454;53.396;-1.510;2022-12-10T03:57:23;27;18;
55591;PMS5003;41454;53.396;-1.510;2022-12-10T03:59:50;18;15;
55591;PMS5003;41454;53.396;-1.510;2022-12-10T04:02:17;15;13;
55591;PMS5003;41454;53.396;-1.510;2022-12-10T04:04:45;17;13;
55591;PMS5003;41454;53.396;-1.510;2022-12-10T04:07:13;14;14;
55591;PMS5003;41454;53.396;-1.510;2022-12-10T04:09:39;13;12;
55591;PMS5003;41454;53.396;-1.510;2022-12-10T04:12:06;17;14;
55591;PMS5003;41454;53.396;-1.510;2022-12-10T04:14:34;14;12;
55591;PMS5003;41454;53.396;-1.510;2022-12-10T04:17:01;15;14;
55591;PMS5003;41454;53.396;-1.510;2022-12-10T04:19:29;22;20;
55591;PMS5003;41454;53.396;-1.510;2022-12-10T04:21:56;15;15;
55591;PMS5003;41454;53.396;-1.510;2022-12-10T04:24:23;19;17;
55591;PMS5003;41454;53.396;-1.510;2022-12-10T04:26:52;15;15;
55591;PMS5003;41454;53.396;-1.510;2022-12-10T04:29:19;21;14;
55591;PMS5003;41454;53.396;-1.510;2022-12-10T04:31:48;15;15;
55591;PMS5003;41454;53.396;-1.510;2022-12-10T04:34:15;21;18;
55591;PMS5003;41454;53.396;-1.510;2022-12-10T04:36:43;15;15;
55591;PMS5003;41454;53.396;-1.510;2022-12-10T04:39:10;12;12;
55591;PMS5003;41454;53.396;-1.510;2022-12-10T04:41:38;17;17;
55591;PMS5003;41454;53.396;-1.510;2022-12-10T04:44:06;19;18;
55591;PMS5003;41454;53.396;-1.510;2022-12-10T04:46:33;18;15;
55591;PMS5003;41454;53.396;-1.510;2022-12-10T04:49:00;20;16;
55591;PMS5003;41454;53.396;-1.510;2022-12-10T04:51:28;19;16;
55591;PMS5003;41454;53.396;-1.510;2022-12-10T04:53:57;16;14;
55591;PMS5003;41454;53.396;-1.510;2022-12-10T04:56:26;17;15;
55591;PMS5003;41454;53.396;-1.510;2022-12-10T04:58:55;14;13;
55591;PMS5003;41454;53.396;-1.510;2022-12-10T05:01:23;12;11;
55591;PMS5003;41454;53.396;-1.510;2022-12-10T05:03:51;14;13;
55591;PMS5003;41454;53.396;-1.510;2022-12-10T05:06:19;15;14;
55591;PMS5003;41454;53.396;-1.510;2022-12-10T05:08:47;14;13;
55591;PMS5003;41454;53.396;-1.510;2022-12-10T05:11:14;15;15;
55591;PMS5003;41454;53.396;-1.510;2022-12-10T05:13:43;13;12;
55591;PMS5003;41454;53.396;-1.510;2022-12-10T05:16:12;16;13;
55591;PMS5003;41454;53.396;-1.510;2022-12-10T05:18:43;19;13;
55591;PMS5003;41454;53.396;-1.510;2022-12-10T05:21:11;12;12;
55591;PMS5003;41454;53.396;-1.510;2022-12-10T05:23:41;9;9;
55591;PMS5003;41454;53.396;-1.510;2022-12-10T05:26:10;11;10;
55591;PMS5003;41454;53.396;-1.510;2022-12-10T05:28:39;12;10;
55591;PMS5003;41454;53.396;-1.510;2022-12-10T05:31:11;14;11;
55591;PMS5003;41454;53.396;-1.510;2022-12-10T05:33:38;13;13;
55591;PMS5003;41454;53.396;-1.510;2022-12-10T05:36:05;11;11;
55591;PMS5003;41454;53.396;-1.510;2022-12-10T05:38:34;12;11;
55591;PMS5003;41454;53.396;-1.510;2022-12-10T05:41:01;12;10;
55591;PMS5003;41454;53.396;-1.510;2022-12-10T05:43:30;9;9;
55591;PMS5003;41454;53.396;-1.510;2022-12-10T05:45:59;9;9;
55591;PMS5003;41454;53.396;-1.510;2022-12-10T05:48:27;10;10;
55591;PMS5003;41454;53.396;-1.510;2022-12-10T05:50:55;14;11;
55591;PMS5003;41454;53.396;-1.510;2022-12-10T05:53:22;12;12;
55591;PMS5003;41454;53.396;-1.510;2022-12-10T05:55:49;12;11;
55591;PMS5003;41454;53.396;-1.510;2022-12-10T05:58:26;11;11;
55591;PMS5003;41454;53.396;-1.510;2022-12-10T06:00:54;15;14;
55591;PMS5003;41454;53.396;-1.510;2022-12-10T06:03:21;15;15;
55591;PMS5003;41454;53.396;-1.510;2022-12-10T06:05:48;14;14;
55591;PMS5003;41454;53.396;-1.510;2022-12-10T06:08:15;21;20;
55591;PMS5003;41454;53.396;-1.510;2022-12-10T06:10:42;19;16;
55591;PMS5003;41454;53.396;-1.510;2022-12-10T06:13:10;15;14;
55591;PMS5003;41454;53.396;-1.510;2022-12-10T06:15:38;18;15;
55591;PMS5003;41454;53.396;-1.510;2022-12-10T06:18:06;19;16;
55591;PMS5003;41454;53.396;-1.510;2022-12-10T06:20:40;19;16;
55591;PMS5003;41454;53.396;-1.510;2022-12-10T06:23:07;20;15;
55591;PMS5003;41454;53.396;-1.510;2022-12-10T06:25:37;15;15;
55591;PMS5003;41454;53.396;-1.510;2022-12-10T06:28:06;19;16;
55591;PMS5003;41454;53.396;-1.510;2022-12-10T06:30:34;16;16;
55591;PMS5003;41454;53.396;-1.510;2022-12-10T06:33:01;16;13;
55591;PMS5003;41454;53.396;-1.510;2022-12-10T06:35:29;20;16;
55591;PMS5003;41454;53.396;-1.510;2022-12-10T06:37:56;14;13;
55591;PMS5003;41454;53.396;-1.510;2022-12-10T06:40:24;14;11;
55591;PMS5003;41454;53.396;-1.510;2022-12-10T06:42:51;13;10;
55591;PMS5003;41454;53.396;-1.510;2022-12-10T06:45:18;9;9;
55591;PMS5003;41454;53.396;-1.510;2022-12-10T06:47:45;11;11;
55591;PMS5003;41454;53.396;-1.510;2022-12-10T06:50:13;11;11;
55591;PMS5003;41454;53.396;-1.510;2022-12-10T06:52:40;11;9;
55591;PMS5003;41454;53.396;-1.510;2022-12-10T06:55:08;13;12;
55591;PMS5003;41454;53.396;-1.510;2022-12-10T06:57:35;10;9;
55591;PMS5003;41454;53.396;-1.510;2022-12-10T07:00:02;11;11;
55591;PMS5003;41454;53.396;-1.510;2022-12-10T07:02:30;7;7;
55591;PMS5003;41454;53.396;-1.510;2022-12-10T07:04:57;9;9;
55591;PMS5003;41454;53.396;-1.510;2022-12-10T07:07:23;6;6;
55591;PMS5003;41454;53.396;-1.510;2022-12-10T07:09:51;10;10;
55591;PMS5003;41454;53.396;-1.510;2022-12-10T07:12:19;6;6;
55591;PMS5003;41454;53.396;-1.510;2022-12-10T07:14:45;7;7;
55591;PMS5003;41454;53.396;-1.510;2022-12-10T07:17:12;6;6;
55591;PMS5003;41454;53.396;-1.510;2022-12-10T07:19:39;5;5;
55591;PMS5003;41454;53.396;-1.510;2022-12-10T07:22:06;7;7;
55591;PMS5003;41454;53.396;-1.510;2022-12-10T07:24:32;9;7;
55591;PMS5003;41454;53.396;-1.510;2022-12-10T07:26:59;7;7;
55591;PMS5003;41454;53.396;-1.510;2022-12-10T07:29:26;4;4;
55591;PMS5003;41454;53.396;-1.510;2022-12-10T07:31:52;6;6;
55591;PMS5003;41454;53.396;-1.510;2022-12-10T07:34:19;7;5;
55591;PMS5003;41454;53.396;-1.510;2022-12-10T07:36:47;5;5;
55591;PMS5003;41454;53.396;-1.510;2022-12-10T07:39:15;6;6;
55591;PMS5003;41454;53.396;-1.510;2022-12-10T07:41:42;5;5;
55591;PMS5003;41454;53.396;-1.510;2022-12-10T07:44:10;6;6;
55591;PMS5003;41454;53.396;-1.510;2022-12-10T07:46:38;7;7;
55591;PMS5003;41454;53.396;-1.510;2022-12-10T07:49:06;8;7;
55591;PMS5003;41454;53.396;-1.510;2022-12-10T07:51:33;8;8;
55591;PMS5003;41454;53.396;-1.510;2022-12-10T07:54:01;7;7;
55591;PMS5003;41454;53.396;-1.510;2022-12-10T07:56:28;7;7;
55591;PMS5003;41454;53.396;-1.510;2022-12-10T07:58:56;7;7;
55591;PMS5003;41454;53.396;-1.510;2022-12-10T08:01:24;7;7;
55591;PMS5003;41454;53.396;-1.510;2022-12-10T08:03:52;8;8;
55591;PMS5003;41454;53.396;-1.510;2022-12-10T08:06:21;6;6;
55591;PMS5003;41454;53.396;-1.510;2022-12-10T08:08:50;5;5;
55591;PMS5003;41454;53.396;-1.510;2022-12-10T08:11:18;10;8;
55591;PMS5003;41454;53.396;-1.510;2022-12-10T08:13:47;7;7;
55591;PMS5003;41454;53.396;-1.510;2022-12-10T08:16:15;7;7;
55591;PMS5003;41454;53.396;-1.510;2022-12-10T08:18:44;7;7;
55591;PMS5003;41454;53.396;-1.510;2022-12-10T08:21:12;8;8;
55591;PMS5003;41454;53.396;-1.510;2022-12-10T08:23:41;10;8;
55591;PMS5003;41454;53.396;-1.510;2022-12-10T08:26:09;12;12;
55591;PMS5003;41454;53.396;-1.510;2022-12-10T08:28:38;6;6;
55591;PMS5003;41454;53.396;-1.510;2022-12-10T08:31:06;8;8;
55591;PMS5003;41454;53.396;-1.510;2022-12-10T08:33:34;10;8;
55591;PMS5003;41454;53.396;-1.510;2022-12-10T08:36:04;13;10;
55591;PMS5003;41454;53.396;-1.510;2022-12-10T08:38:33;13;12;
55591;PMS5003;41454;53.396;-1.510;2022-12-10T08:41:05;11;11;
55591;PMS5003;41454;53.396;-1.510;2022-12-10T08:43:33;8;8;
55591;PMS5003;41454;53.396;-1.510;2022-12-10T08:46:01;14;13;
55591;PMS5003;41454;53.396;-1.510;2022-12-10T08:48:28;12;11;
55591;PMS5003;41454;53.396;-1.510;2022-12-10T08:50:56;7;6;
55591;PMS5003;41454;53.396;-1.510;2022-12-10T08:53:24;9;9;
55591;PMS5003;41454;53.396;-1.510;2022-12-10T08:55:52;10;10;
55591;PMS5003;41454;53.396;-1.510;2022-12-10T08:58:19;8;8;
55591;PMS5003;41454;53.396;-1.510;2022-12-10T09:00:47;9;8;
55591;PMS5003;41454;53.396;-1.510;2022-12-10T09:03:15;7;6;
55591;PMS5003;41454;53.396;-1.510;2022-12-10T09:05:43;9;6;
55591;PMS5003;41454;53.396;-1.510;2022-12-10T09:08:10;7;7;
55591;PMS5003;41454;53.396;-1.510;2022-12-10T09:10:38;10;10;
55591;PMS5003;41454;53.396;-1.510;2022-12-10T09:13:05;16;15;
55591;PMS5003;41454;53.396;-1.510;2022-12-10T09:15:33;10;10;
55591;PMS5003;41454;53.396;-1.510;2022-12-10T09:18:00;19;16;
55591;PMS5003;41454;53.396;-1.510;2022-12-10T09:20:28;21;21;
55591;PMS5003;41454;53.396;-1.510;2022-12-10T09:22:55;26;20;
55591;PMS5003;41454;53.396;-1.510;2022-12-10T09:25:22;28;24;
55591;PMS5003;41454;53.396;-1.510;2022-12-10T09:27:49;25;25;
55591;PMS5003;41454;53.396;-1.510;2022-12-10T09:30:17;27;26;
55591;PMS5003;41454;53.396;-1.510;2022-12-10T09:32:44;27;26;
55591;PMS5003;41454;53.396;-1.510;2022-12-10T09:35:11;30;27;
55591;PMS5003;41454;53.396;-1.510;2022-12-10T09:37:39;24;21;
55591;PMS5003;41454;53.396;-1.510;2022-12-10T09:40:06;27;26;
55591;PMS5003;41454;53.396;-1.510;2022-12-10T09:42:40;22;21;
55591;PMS5003;41454;53.396;-1.510;2022-12-10T09:45:18;25;21;
55591;PMS5003;41454;53.396;-1.510;2022-12-10T09:47:52;21;20;
55591;PMS5003;41454;53.396;-1.510;2022-12-10T09:50:29;27;24;
55591;PMS5003;41454;53.396;-1.510;2022-12-10T09:53:00;23;21;
55591;PMS5003;41454;53.396;-1.510;2022-12-10T09:55:31;26;22;
55591;PMS5003;41454;53.396;-1.510;2022-12-10T09:58:01;21;20;
55591;PMS5003;41454;53.396;-1.510;2022-12-10T10:00:32;23;23;
55591;PMS5003;41454;53.396;-1.510;2022-12-10T10:03:03;28;25;
55591;PMS5003;41454;53.396;-1.510;2022-12-10T10:05:31;22;22;
55591;PMS5003;41454;53.396;-1.510;2022-12-10T10:08:03;26;25;
55591;PMS5003;41454;53.396;-1.510;2022-12-10T10:10:33;24;21;
55591;PMS5003;41454;53.396;-1.510;2022-12-10T10:13:12;25;24;
55591;PMS5003;41454;53.396;-1.510;2022-12-10T10:15:45;22;22;
55591;PMS5003;41454;53.396;-1.510;2022-12-10T10:18:14;28;27;
55591;PMS5003;41454;53.396;-1.510;2022-12-10T10:20:46;34;30;
55591;PMS5003;41454;53.396;-1.510;2022-12-10T10:23:14;31;27;
55591;PMS5003;41454;53.396;-1.510;2022-12-10T10:25:42;30;30;
55591;PMS5003;41454;53.396;-1.510;2022-12-10T10:28:12;33;32;
55591;PMS5003;41454;53.396;-1.510;2022-12-10T10:30:43;26;26;
55591;PMS5003;41454;53.396;-1.510;2022-12-10T10:33:12;24;24;
55591;PMS5003;41454;53.396;-1.510;2022-12-10T10:35:42;29;26;
55591;PMS5003;41454;53.396;-1.510;2022-12-10T10:38:14;24;24;
55591;PMS5003;41454;53.396;-1.510;2022-12-10T10:40:44;26;24;
55591;PMS5003;41454;53.396;-1.510;2022-12-10T10:43:17;22;22;
55591;PMS5003;41454;53.396;-1.510;2022-12-10T10:45:49;21;20;
55591;PMS5003;41454;53.396;-1.510;2022-12-10T10:48:21;26;24;
55591;PMS5003;41454;53.396;-1.510;2022-12-10T10:50:51;35;34;
55591;PMS5003;41454;53.396;-1.510;2022-12-10T10:53:21;33;33;
55591;PMS5003;41454;53.396;-1.510;2022-12-10T10:55:51;33;33;
55591;PMS5003;41454;53.396;-1.510;2022-12-10T10:58:22;36;34;
55591;PMS5003;41454;53.396;-1.510;2022-12-10T11:00:59;35;33;
55591;PMS5003;41454;53.396;-1.510;2022-12-10T11:03:28;28;26;
55591;PMS5003;41454;53.396;-1.510;2022-12-10T11:05:57;32;28;
55591;PMS5003;41454;53.396;-1.510;2022-12-10T11:08:27;30;27;
55591;PMS5003;41454;53.396;-1.510;2022-12-10T11:10:58;25;25;
55591;PMS5003;41454;53.396;-1.510;2022-12-10T11:13:30;24;23;
55591;PMS5003;41454;53.396;-1.510;2022-12-10T11:16:02;27;26;
55591;PMS5003;41454;53.396;-1.510;2022-12-10T11:18:39;23;21;
55591;PMS5003;41454;53.396;-1.510;2022-12-10T11:21:16;26;25;
55591;PMS5003;41454;53.396;-1.510;2022-12-10T11:23:45;24;22;
55591;PMS5003;41454;53.396;-1.510;2022-12-10T11:26:21;23;22;
55591;PMS5003;41454;53.396;-1.510;2022-12-10T11:29:00;22;22;
55591;PMS5003;41454;53.396;-1.510;2022-12-10T11:31:40;21;21;
55591;PMS5003;41454;53.396;-1.510;2022-12-10T11:34:17;22;22;
55591;PMS5003;41454;53.396;-1.510;2022-12-10T11:36:54;21;19;
55591;PMS5003;41454;53.396;-1.510;2022-12-10T11:39:34;23;23;
55591;PMS5003;41454;53.396;-1.510;2022-12-10T11:42:16;22;22;
55591;PMS5003;41454;53.396;-1.510;2022-12-10T11:44:50;24;24;
55591;PMS5003;41454;53.396;-1.510;2022-12-10T11:47:29;24;23;
55591;PMS5003;41454;53.396;-1.510;2022-12-10T11:50:13;26;23;
55591;PMS5003;41454;53.396;-1.510;2022-12-10T11:53:02;28;23;
55591;PMS5003;41454;53.396;-1.510;2022-12-10T11:55:44;23;21;
55591;PMS5003;41454;53.396;-1.510;2022-12-10T11:58:27;24;21;
55591;PMS5003;41454;53.396;-1.510;2022-12-10T12:01:09;21;20;
55591;PMS5003;41454;53.396;-1.510;2022-12-10T12:03:46;23;23;
55591;PMS5003;41454;53.396;-1.510;2022-12-10T12:06:30;28;24;
55591;PMS5003;41454;53.396;-1.510;2022-12-10T12:09:09;23;22;
55591;PMS5003;41454;53.396;-1.510;2022-12-10T12:11:50;22;20;
55591;PMS5003;41454;53.396;-1.510;2022-12-10T12:14:29;23;20;
55591;PMS5003;41454;53.396;-1.510;2022-12-10T12:17:02;23;22;
55591;PMS5003;41454;53.396;-1.510;2022-12-10T12:19:43;23;22;
55591;PMS5003;41454;53.396;-1.510;2022-12-10T12:22:16;21;21;
55591;PMS5003;41454;53.396;-1.510;2022-12-10T12:24:50;25;23;
55591;PMS5003;41454;53.396;-1.510;2022-12-10T12:27:22;22;19;
55591;PMS5003;41454;53.396;-1.510;2022-12-10T12:29:57;17;17;
55591;PMS5003;41454;53.396;-1.510;2022-12-10T12:32:30;22;21;
55591;PMS5003;41454;53.396;-1.510;2022-12-10T12:35:06;19;18;
55591;PMS5003;41454;53.396;-1.510;2022-12-10T12:37:40;18;17;
55591;PMS5003;41454;53.396;-1.510;2022-12-10T12:40:13;16;16;
55591;PMS5003;41454;53.396;-1.510;2022-12-10T12:42:49;17;16;
55591;PMS5003;41454;53.396;-1.510;2022-12-10T12:45:24;15;15;
55591;PMS5003;41454;53.396;-1.510;2022-12-10T12:48:01;16;15;
55591;PMS5003;41454;53.396;-1.510;2022-12-10T12:50:40;15;15;
55591;PMS5003;41454;53.396;-1.510;2022-12-10T12:53:11;17;15;
55591;PMS5003;41454;53.396;-1.510;2022-12-10T12:55:43;15;15;
55591;PMS5003;41454;53.396;-1.510;2022-12-10T12:58:18;14;12;
55591;PMS5003;41454;53.396;-1.510;2022-12-10T13:00:51;14;10;
55591;PMS5003;41454;53.396;-1.510;2022-12-10T13:03:28;15;14;
55591;PMS5003;41454;53.396;-1.510;2022-12-10T13:06:18;12;11;
55591;PMS5003;41454;53.396;-1.510;2022-12-10T13:08:50;18;16;
55591;PMS5003;41454;53.396;-1.510;2022-12-10T13:11:33;17;17;
55591;PMS5003;41454;53.396;-1.510;2022-12-10T13:14:09;16;14;
55591;PMS5003;41454;53.396;-1.510;2022-12-10T13:16:46;22;19;
55591;PMS5003;41454;53.396;-1.510;2022-12-10T13:19:27;21;20;
55591;PMS5003;41454;53.396;-1.510;2022-12-10T13:21:57;26;25;
55591;PMS5003;41454;53.396;-1.510;2022-12-10T13:24:46;24;21;
55591;PMS5003;41454;53.396;-1.510;2022-12-10T13:27:30;31;28;
55591;PMS5003;41454;53.396;-1.510;2022-12-10T13:30:00;25;25;
55591;PMS5003;41454;53.396;-1.510;2022-12-10T13:32:46;34;31;
55591;PMS5003;41454;53.396;-1.510;2022-12-10T13:35:26;27;25;
55591;PMS5003;41454;53.396;-1.510;2022-12-10T13:37:57;23;21;
55591;PMS5003;41454;53.396;-1.510;2022-12-10T13:40:38;29;22;
55591;PMS5003;41454;53.396;-1.510;2022-12-10T13:43:22;27;25;
55591;PMS5003;41454;53.396;-1.510;2022-12-10T13:46:17;23;19;
55591;PMS5003;41454;53.396;-1.510;2022-12-10T13:48:49;17;15;
55591;PMS5003;41454;53.396;-1.510;2022-12-10T13:51:26;16;15;
55591;PMS5003;41454;53.396;-1.510;2022-12-10T13:54:07;17;14;
55591;PMS5003;41454;53.396;-1.510;2022-12-10T13:56:47;17;17;
55591;PMS5003;41454;53.396;-1.510;2022-12-10T13:59:25;18;18;
55591;PMS5003;41454;53.396;-1.510;2022-12-10T14:02:09;20;20;
55591;PMS5003;41454;53.396;-1.510;2022-12-10T14:05:02;13;13;
55591;PMS5003;41454;53.396;-1.510;2022-12-10T14:07:40;14;13;
55591;PMS5003;41454;53.396;-1.510;2022-12-10T14:10:13;14;13;
55591;PMS5003;41454;53.396;-1.510;2022-12-10T14:12:43;14;13;
55591;PMS5003;41454;53.396;-1.510;2022-12-10T14:15:15;19;19;
55591;PMS5003;41454;53.396;-1.510;2022-12-10T14:17:45;23;18;
55591;PMS5003;41454;53.396;-1.510;2022-12-10T14:20:14;18;17;
55591;PMS5003;41454;53.396;-1.510;2022-12-10T14:22:45;16;14;
55591;PMS5003;41454;53.396;-1.510;2022-12-10T14:25:15;14;13;
55591;PMS5003;41454;53.396;-1.510;2022-12-10T14:27:46;14;14;
55591;PMS5003;41454;53.396;-1.510;2022-12-10T14:30:15;33;31;
55591;PMS5003;41454;53.396;-1.510;2022-12-10T14:32:44;15;15;
55591;PMS5003;41454;53.396;-1.510;2022-12-10T14:35:13;13;13;
55591;PMS5003;41454;53.396;-1.510;2022-12-10T14:37:43;13;13;
55591;PMS5003;41454;53.396;-1.510;2022-12-10T14:40:17;19;18;
55591;PMS5003;41454;53.396;-1.510;2022-12-10T14:42:48;17;17;
55591;PMS5003;41454;53.396;-1.510;2022-12-10T14:45:15;16;14;
55591;PMS5003;41454;53.396;-1.510;2022-12-10T14:47:43;15;14;
55591;PMS5003;41454;53.396;-1.510;2022-12-10T14:50:10;17;17;
55591;PMS5003;41454;53.396;-1.510;2022-12-10T14:52:39;15;15;
55591;PMS5003;41454;53.396;-1.510;2022-12-10T14:55:11;17;16;
55591;PMS5003;41454;53.396;-1.510;2022-12-10T14:57:40;15;14;
55591;PMS5003;41454;53.396;-1.510;2022-12-10T15:00:11;17;16;
55591;PMS5003;41454;53.396;-1.510;2022-12-10T15:02:43;17;16;
55591;PMS5003;41454;53.396;-1.510;2022-12-10T15:05:15;14;14;
55591;PMS5003;41454;53.396;-1.510;2022-12-10T15:07:48;14;14;
55591;PMS5003;41454;53.396;-1.510;2022-12-10T15:10:20;21;20;
55591;PMS5003;41454;53.396;-1.510;2022-12-10T15:12:51;16;15;
55591;PMS5003;41454;53.396;-1.510;2022-12-10T15:15:22;17;15;
55591;PMS5003;41454;53.396;-1.510;2022-12-10T15:17:57;18;16;
55591;PMS5003;41454;53.396;-1.510;2022-12-10T15:20:27;21;18;
55591;PMS5003;41454;53.396;-1.510;2022-12-10T15:23:06;18;16;
55591;PMS5003;41454;53.396;-1.510;2022-12-10T15:25:41;31;28;
55591;PMS5003;41454;53.396;-1.510;2022-12-10T15:28:21;30;29;
55591;PMS5003;41454;53.396;-1.510;2022-12-10T15:30:50;23;21;
55591;PMS5003;41454;53.396;-1.510;2022-12-10T15:33:29;18;16;
55591;PMS5003;41454;53.396;-1.510;2022-12-10T15:35:58;22;20;
55591;PMS5003;41454;53.396;-1.510;2022-12-10T15:38:26;23;22;
55591;PMS5003;41454;53.396;-1.510;2022-12-10T15:40:58;18;17;
55591;PMS5003;41454;53.396;-1.510;2022-12-10T15:43:50;22;18;
55591;PMS5003;41454;53.396;-1.510;2022-12-10T15:46:21;21;19;
55591;PMS5003;41454;53.396;-1.510;2022-12-10T15:48:48;26;20;
55591;PMS5003;41454;53.396;-1.510;2022-12-10T15:51:15;25;22;
55591;PMS5003;41454;53.396;-1.510;2022-12-10T15:53:43;24;21;
55591;PMS5003;41454;53.396;-1.510;2022-12-10T15:56:10;31;25;
55591;PMS5003;41454;53.396;-1.510;2022-12-10T15:58:37;32;30;
55591;PMS5003;41454;53.396;-1.510;2022-12-10T16:01:05;35;32;
55591;PMS5003;41454;53.396;-1.510;2022-12-10T16:03:32;39;32;
55591;PMS5003;41454;53.396;-1.510;2022-12-10T16:05:59;37;32;
55591;PMS5003;41454;53.396;-1.510;2022-12-10T16:08:27;31;30;
55591;PMS5003;41454;53.396;-1.510;2022-12-10T16:10:55;38;36;
55591;PMS5003;41454;53.396;-1.510;2022-12-10T16:13:26;36;34;
55591;PMS5003;41454;53.396;-1.510;2022-12-10T16:15:57;43;41;
55591;PMS5003;41454;53.396;-1.510;2022-12-10T16:18:27;45;41;
55591;PMS5003;41454;53.396;-1.510;2022-12-10T16:20:54;38;36;
55591;PMS5003;41454;53.396;-1.510;2022-12-10T16:23:21;46;44;
55591;PMS5003;41454;53.396;-1.510;2022-12-10T16:25:49;41;36;
55591;PMS5003;41454;53.396;-1.510;2022-12-10T16:28:17;67;61;
55591;PMS5003;41454;53.396;-1.510;2022-12-10T16:30:46;49;44;